createdAt,value
2023-04-09T00:01:17.089Z,34.50
2023-04-09T00:03:45.374Z,33.90
2023-04-09T00:06:13.811Z,30.20
2023-04-09T00:08:41.753Z,37.70
2023-04-09T00:11:11.730Z,30.70
2023-04-09T00:13:40.139Z,36.20
2023-04-09T00:16:08.472Z,29.40
2023-04-09T00:18:38.434Z,31.70
2023-04-09T00:21:08.867Z,28.20
2023-04-09T00:23:37.112Z,30.40
2023-04-09T00:26:05.468Z,32.00
2023-04-09T00:28:33.724Z,28.10
2023-04-09T00:31:02.644Z,31.10
2023-04-09T00:33:31.497Z,27.90
2023-04-09T00:35:59.561Z,25.50
2023-04-09T00:38:27.958Z,29.30
2023-04-09T00:40:56.294Z,30.50
2023-04-09T00:43:25.970Z,27.20
2023-04-09T00:45:56.095Z,25.20
2023-04-09T00:48:24.821Z,28.00
2023-04-09T00:50:52.837Z,28.00
2023-04-09T00:53:21.075Z,25.70
2023-04-09T00:55:49.252Z,26.50
2023-04-09T00:58:32.748Z,28.00
2023-04-09T01:01:01.143Z,28.20
2023-04-09T01:03:32.239Z,31.00
2023-04-09T01:06:09.066Z,25.60
2023-04-09T01:08:48.406Z,31.20
2023-04-09T01:11:36.583Z,26.50
2023-04-09T01:14:08.864Z,29.60
2023-04-09T01:16:37.398Z,25.40
2023-04-09T01:19:11.441Z,25.50
2023-04-09T01:21:40.404Z,26.60
2023-04-09T01:24:40.365Z,33.40
2023-04-09T01:27:08.759Z,31.20
2023-04-09T01:29:59.554Z,29.20
2023-04-09T01:32:28.167Z,28.80
2023-04-09T01:34:58.350Z,27.30
2023-04-09T01:37:26.541Z,28.80
2023-04-09T01:39:57.574Z,25.30
2023-04-09T01:42:27.803Z,29.40
2023-04-09T01:44:57.708Z,26.80
2023-04-09T01:47:26.267Z,29.40
2023-04-09T01:49:54.317Z,25.60
2023-04-09T01:52:22.592Z,26.20
2023-04-09T01:54:50.656Z,26.20
2023-04-09T01:57:18.783Z,25.60
2023-04-09T01:59:47.194Z,32.70
2023-04-09T02:02:20.722Z,25.10
2023-04-09T02:04:49.423Z,26.70
2023-04-09T02:07:46.394Z,28.50
2023-04-09T02:10:14.566Z,26.50
2023-04-09T02:12:45.566Z,27.00
2023-04-09T02:15:14.524Z,26.40
2023-04-09T02:17:43.642Z,29.00
2023-04-09T02:20:12.564Z,25.70
2023-04-09T02:22:40.769Z,20.50
2023-04-09T02:25:08.930Z,24.30
2023-04-09T02:27:36.941Z,27.80
2023-04-09T02:30:11.136Z,25.80
2023-04-09T02:32:39.258Z,25.50
2023-04-09T02:35:10.493Z,25.60
2023-04-09T02:37:38.840Z,23.60
2023-04-09T02:40:09.728Z,27.50
2023-04-09T02:42:38.057Z,26.70
2023-04-09T02:45:07.022Z,31.50
2023-04-09T02:47:41.035Z,26.90
2023-04-09T02:50:09.547Z,24.20
2023-04-09T02:52:38.008Z,26.50
2023-04-09T02:55:08.389Z,27.50
2023-04-09T02:57:37.457Z,28.50
2023-04-09T03:00:06.141Z,21.50
2023-04-09T03:02:41.684Z,25.10
2023-04-09T03:05:09.849Z,26.50
2023-04-09T03:07:42.207Z,25.40
2023-04-09T03:10:11.052Z,24.20
2023-04-09T03:12:39.926Z,22.70
2023-04-09T03:15:08.642Z,28.30
2023-04-09T03:17:39.178Z,23.50
2023-04-09T03:20:07.895Z,25.20
2023-04-09T03:22:42.756Z,22.10
2023-04-09T03:25:29.785Z,22.90
2023-04-09T03:27:58.623Z,22.90
2023-04-09T03:30:43.674Z,24.10
2023-04-09T03:33:12.323Z,23.00
2023-04-09T03:35:50.902Z,24.40
2023-04-09T03:38:26.997Z,26.40
2023-04-09T03:40:56.273Z,22.40
2023-04-09T03:43:24.580Z,20.40
2023-04-09T03:45:53.885Z,18.00
2023-04-09T03:48:26.184Z,19.50
2023-04-09T03:50:54.326Z,17.40
2023-04-09T03:53:32.618Z,18.60
2023-04-09T03:56:04.496Z,19.50
2023-04-09T03:58:32.992Z,17.50
2023-04-09T04:01:02.303Z,19.70
2023-04-09T04:03:37.759Z,15.10
2023-04-09T04:06:28.032Z,15.90
2023-04-09T04:09:02.943Z,16.10
2023-04-09T04:11:41.305Z,15.00
2023-04-09T04:14:09.290Z,16.90
2023-04-09T04:16:41.066Z,15.50
2023-04-09T04:19:09.841Z,20.20
2023-04-09T04:21:42.260Z,17.00
2023-04-09T04:24:10.653Z,18.30
2023-04-09T04:26:42.879Z,18.70
2023-04-09T04:29:11.516Z,15.80
2023-04-09T04:31:53.929Z,16.00
2023-04-09T04:34:24.570Z,19.00
2023-04-09T04:36:59.583Z,15.60
2023-04-09T04:39:32.088Z,17.70
2023-04-09T04:42:06.083Z,21.40
2023-04-09T04:44:36.546Z,19.10
2023-04-09T04:47:15.954Z,16.20
2023-04-09T04:49:46.285Z,19.90
2023-04-09T04:52:20.164Z,17.60
2023-04-09T04:54:50.385Z,14.40
2023-04-09T04:57:21.709Z,17.60
2023-04-09T04:59:50.742Z,15.70
2023-04-09T05:02:19.269Z,15.90
2023-04-09T05:05:14.134Z,21.80
2023-04-09T05:07:51.922Z,24.20
2023-04-09T05:10:20.188Z,18.60
2023-04-09T05:12:48.677Z,23.50
2023-04-09T05:15:24.509Z,19.00
2023-04-09T05:17:52.964Z,21.10
2023-04-09T05:20:21.372Z,24.50
2023-04-09T05:23:01.356Z,21.90
2023-04-09T05:25:36.484Z,16.80
2023-04-09T05:28:05.640Z,19.80
2023-04-09T05:30:34.178Z,22.40
2023-04-09T05:33:04.379Z,18.60
2023-04-09T05:35:35.150Z,20.60
2023-04-09T05:38:05.361Z,16.30
2023-04-09T05:40:35.497Z,15.30
2023-04-09T05:43:06.157Z,21.00
2023-04-09T05:45:42.759Z,20.60
2023-04-09T05:48:13.018Z,20.60
2023-04-09T05:50:53.866Z,22.90
2023-04-09T05:53:24.678Z,17.70
2023-04-09T05:55:55.893Z,20.20
2023-04-09T05:58:25.994Z,23.30
2023-04-09T06:00:57.915Z,17.60
2023-04-09T06:03:26.294Z,19.50
2023-04-09T06:05:55.097Z,19.90
2023-04-09T06:08:24.342Z,19.10
2023-04-09T06:10:52.477Z,20.10
2023-04-09T06:13:21.371Z,19.40
2023-04-09T06:15:52.490Z,15.80
2023-04-09T06:18:20.896Z,19.80
2023-04-09T06:20:49.658Z,15.10
2023-04-09T06:23:29.017Z,23.60
2023-04-09T06:25:57.507Z,17.10
2023-04-09T06:28:25.680Z,17.60
2023-04-09T06:30:55.650Z,18.60
2023-04-09T06:33:24.323Z,14.50
2023-04-09T06:35:52.342Z,16.90
2023-04-09T06:38:21.141Z,16.90
2023-04-09T06:40:49.515Z,22.30
2023-04-09T06:43:20.094Z,14.20
2023-04-09T06:45:52.156Z,13.60
2023-04-09T06:48:20.201Z,16.20
2023-04-09T06:50:48.593Z,17.40
2023-04-09T06:53:17.815Z,14.50
2023-04-09T06:55:46.000Z,16.10
2023-04-09T06:58:16.996Z,14.60
2023-04-09T07:00:47.900Z,16.60
2023-04-09T07:03:17.378Z,17.30
2023-04-09T07:05:46.623Z,17.40
2023-04-09T07:08:15.098Z,15.10
2023-04-09T07:10:52.956Z,13.00
2023-04-09T07:13:24.958Z,16.20
2023-04-09T07:15:53.061Z,15.40
2023-04-09T07:18:21.781Z,12.20
2023-04-09T07:20:52.374Z,12.50
2023-04-09T07:23:20.743Z,11.60
2023-04-09T07:25:50.607Z,12.60
2023-04-09T07:28:19.454Z,13.50
2023-04-09T07:30:50.631Z,11.10
2023-04-09T07:33:38.633Z,14.60
2023-04-09T07:36:09.678Z,10.50
2023-04-09T07:38:37.750Z,18.60
2023-04-09T07:41:11.453Z,13.80
2023-04-09T07:43:43.592Z,9.10
2023-04-09T07:46:11.958Z,12.00
2023-04-09T07:48:42.756Z,8.10
2023-04-09T07:51:11.732Z,10.40
2023-04-09T07:53:44.120Z,9.30
2023-04-09T07:56:14.044Z,9.10
2023-04-09T07:58:42.781Z,8.40
2023-04-09T08:01:11.112Z,12.50
2023-04-09T08:03:40.280Z,15.40
2023-04-09T08:06:10.559Z,12.30
2023-04-09T08:08:44.529Z,8.30
2023-04-09T08:11:12.481Z,9.80
2023-04-09T08:13:41.085Z,8.30
2023-04-09T08:16:09.738Z,9.30
2023-04-09T08:18:42.495Z,10.20
2023-04-09T08:21:10.652Z,12.90
2023-04-09T08:23:38.762Z,11.60
2023-04-09T08:26:09.295Z,13.40
2023-04-09T08:28:37.498Z,15.70
2023-04-09T08:31:09.670Z,11.50
2023-04-09T08:33:37.882Z,9.90
2023-04-09T08:36:09.510Z,12.40
2023-04-09T08:38:37.928Z,10.00
2023-04-09T08:41:06.578Z,9.90
2023-04-09T08:43:47.221Z,11.60
2023-04-09T08:46:23.020Z,10.60
2023-04-09T08:48:51.492Z,12.30
2023-04-09T08:51:21.490Z,8.80
2023-04-09T08:53:56.588Z,7.70
2023-04-09T08:56:25.074Z,10.80
2023-04-09T08:58:53.504Z,10.60
2023-04-09T09:01:26.012Z,12.20
2023-04-09T09:03:56.465Z,15.10
2023-04-09T09:06:26.222Z,9.80
2023-04-09T09:09:24.967Z,12.10
2023-04-09T09:11:53.841Z,10.90
2023-04-09T09:14:26.175Z,14.20
2023-04-09T09:17:03.900Z,10.80
2023-04-09T09:19:36.610Z,10.00
2023-04-09T09:22:11.175Z,14.70
2023-04-09T09:24:50.290Z,9.40
2023-04-09T09:27:37.046Z,8.70
2023-04-09T09:30:07.242Z,11.90
2023-04-09T09:32:37.351Z,12.90
2023-04-09T09:35:06.996Z,12.50
2023-04-09T09:37:35.146Z,8.50
2023-04-09T09:40:07.119Z,10.30
2023-04-09T09:42:37.356Z,8.70
2023-04-09T09:45:17.732Z,9.40
2023-04-09T09:47:48.752Z,15.50
2023-04-09T09:50:17.552Z,12.20
2023-04-09T09:52:45.938Z,9.70
2023-04-09T09:55:15.412Z,9.10
2023-04-09T09:57:44.757Z,8.90
2023-04-09T10:00:17.728Z,11.20
2023-04-09T10:02:57.381Z,10.50
2023-04-09T10:05:27.881Z,9.40
2023-04-09T10:07:58.337Z,11.60
2023-04-09T10:10:26.478Z,10.40
2023-04-09T10:12:54.836Z,9.60
2023-04-09T10:15:24.167Z,7.80
2023-04-09T10:17:54.600Z,10.00
2023-04-09T10:20:29.179Z,12.40
2023-04-09T10:22:57.352Z,9.70
2023-04-09T10:25:26.527Z,13.80
2023-04-09T10:28:02.264Z,11.10
2023-04-09T10:30:34.361Z,8.20
2023-04-09T10:33:26.522Z,14.80
2023-04-09T10:36:05.765Z,12.60
2023-04-09T10:38:45.315Z,16.70
2023-04-09T10:41:22.482Z,11.00
2023-04-09T10:43:51.078Z,11.30
2023-04-09T10:46:31.813Z,11.50
2023-04-09T10:49:16.941Z,16.10
2023-04-09T10:52:01.915Z,11.40
2023-04-09T10:54:34.365Z,11.20
2023-04-09T10:57:11.609Z,9.50
2023-04-09T10:59:49.163Z,7.90
2023-04-09T11:02:43.327Z,9.90
2023-04-09T11:05:18.056Z,9.70
2023-04-09T11:07:58.716Z,13.30
2023-04-09T11:10:27.266Z,10.80
2023-04-09T11:12:57.283Z,19.70
2023-04-09T11:15:28.662Z,10.40
2023-04-09T11:17:57.882Z,13.50
2023-04-09T11:23:13.394Z,13.20
2023-04-09T11:25:43.286Z,8.60
2023-04-09T11:28:29.945Z,9.00
2023-04-09T11:31:11.798Z,8.70
2023-04-09T11:33:47.121Z,12.10
2023-04-09T11:36:15.297Z,9.40
2023-04-09T11:38:44.928Z,7.60
2023-04-09T11:41:13.707Z,9.30
2023-04-09T11:43:42.544Z,8.50
2023-04-09T11:46:14.687Z,8.20
2023-04-09T11:48:44.091Z,11.90
2023-04-09T11:51:21.020Z,12.60
2023-04-09T11:53:54.814Z,10.10
2023-04-09T11:56:22.928Z,11.80
2023-04-09T11:58:58.784Z,9.10
2023-04-09T12:01:32.546Z,14.00
2023-04-09T12:04:01.690Z,15.70
2023-04-09T12:06:40.516Z,10.50
2023-04-09T12:09:08.713Z,7.70
2023-04-09T12:11:47.813Z,12.00
2023-04-09T12:14:34.971Z,15.60
2023-04-09T12:17:05.260Z,13.30
2023-04-09T12:19:54.137Z,16.10
2023-04-09T12:22:41.945Z,9.00
2023-04-09T12:25:13.993Z,11.70
2023-04-09T12:27:47.031Z,10.80
2023-04-09T12:30:16.931Z,10.70
2023-04-09T12:32:52.669Z,9.70
2023-04-09T12:35:22.910Z,10.90
2023-04-09T12:37:53.750Z,10.20
2023-04-09T12:40:24.758Z,9.80
2023-04-09T12:42:59.274Z,7.60
2023-04-09T12:45:28.306Z,11.60
2023-04-09T12:47:59.534Z,9.80
2023-04-09T12:50:28.604Z,9.90
2023-04-09T12:52:56.700Z,12.50
2023-04-09T12:55:26.774Z,8.40
2023-04-09T12:57:57.074Z,13.80
2023-04-09T13:00:25.239Z,13.40
2023-04-09T13:02:57.923Z,16.60
2023-04-09T13:05:26.089Z,18.40
2023-04-09T13:07:54.801Z,11.00
2023-04-09T13:10:23.627Z,13.60
2023-04-09T13:12:52.578Z,13.80
2023-04-09T13:15:23.060Z,30.70
2023-04-09T13:17:56.399Z,11.90
2023-04-09T13:20:27.731Z,11.90
2023-04-09T13:22:56.528Z,15.50
2023-04-09T13:25:24.990Z,16.00
2023-04-09T13:27:58.003Z,17.20
2023-04-09T13:30:26.553Z,13.40
2023-04-09T13:33:01.634Z,15.80
2023-04-09T13:35:41.235Z,10.40
2023-04-09T13:38:16.287Z,8.60
2023-04-09T13:43:21.293Z,12.60
2023-04-09T13:45:50.191Z,11.80
2023-04-09T13:48:19.041Z,11.80
2023-04-09T13:50:50.287Z,13.00
2023-04-09T13:53:19.603Z,19.30
2023-04-09T13:55:49.074Z,11.10
2023-04-09T13:58:17.073Z,13.90
2023-04-09T14:00:48.294Z,14.40
2023-04-09T14:03:16.802Z,11.90
2023-04-09T14:05:45.388Z,14.30
2023-04-09T14:08:19.197Z,14.60
2023-04-09T14:10:48.636Z,15.40
2023-04-09T14:13:17.246Z,13.60
2023-04-09T14:15:46.405Z,17.20
2023-04-09T14:18:15.559Z,10.90
2023-04-09T14:20:44.756Z,13.20
2023-04-09T14:23:13.235Z,15.20
2023-04-09T14:25:43.535Z,17.10
2023-04-09T14:28:11.837Z,14.60
2023-04-09T14:30:42.389Z,14.90
2023-04-09T14:33:33.154Z,16.50
2023-04-09T14:36:04.838Z,21.60
2023-04-09T14:38:37.759Z,14.10
2023-04-09T14:41:06.919Z,18.00
2023-04-09T14:43:35.613Z,15.00
2023-04-09T14:46:13.553Z,19.00
2023-04-09T14:48:46.863Z,18.00
2023-04-09T14:51:16.749Z,19.30
2023-04-09T14:53:52.971Z,20.80
2023-04-09T14:56:21.580Z,20.00
2023-04-09T14:58:49.935Z,20.20
2023-04-09T15:01:21.532Z,19.10
2023-04-09T15:04:11.414Z,16.00
2023-04-09T15:06:42.528Z,17.20
2023-04-09T15:09:15.025Z,21.00
2023-04-09T15:11:45.698Z,19.60
2023-04-09T15:14:17.883Z,18.80
2023-04-09T15:16:48.659Z,25.10
2023-04-09T15:19:18.182Z,14.50
2023-04-09T15:21:46.380Z,15.80
2023-04-09T15:24:19.633Z,16.20
2023-04-09T15:26:47.811Z,11.30
2023-04-09T15:29:22.500Z,13.90
2023-04-09T15:34:32.727Z,15.50
2023-04-09T15:37:04.442Z,16.70
2023-04-09T15:39:32.829Z,14.60
2023-04-09T15:42:02.275Z,17.10
2023-04-09T15:44:31.646Z,18.30
2023-04-09T15:47:11.305Z,16.30
2023-04-09T15:49:43.092Z,13.60
2023-04-09T15:52:16.166Z,16.20
2023-04-09T15:54:46.710Z,16.40
2023-04-09T15:57:22.505Z,16.20
2023-04-09T15:59:50.825Z,20.10
2023-04-09T16:02:25.924Z,17.30
2023-04-09T16:04:56.448Z,16.90
2023-04-09T16:07:25.840Z,16.50
2023-04-09T16:09:54.537Z,17.90
2023-04-09T16:12:26.419Z,18.30
2023-04-09T16:15:08.114Z,19.00
2023-04-09T16:17:40.845Z,18.90
2023-04-09T16:20:11.591Z,17.60
2023-04-09T16:22:45.958Z,13.30
2023-04-09T16:25:14.506Z,18.60
2023-04-09T16:27:48.570Z,18.60
2023-04-09T16:30:23.815Z,16.50
2023-04-09T16:32:56.323Z,17.10
2023-04-09T16:35:26.123Z,17.70
2023-04-09T16:38:09.402Z,13.40
2023-04-09T16:40:46.434Z,15.80
2023-04-09T16:43:18.862Z,14.60
2023-04-09T16:45:48.079Z,14.70
2023-04-09T16:48:37.241Z,17.50
2023-04-09T16:51:12.572Z,15.70
2023-04-09T16:53:44.860Z,16.00
2023-04-09T16:56:19.508Z,19.70
2023-04-09T16:58:48.501Z,21.80
2023-04-09T17:01:21.239Z,20.70
2023-04-09T17:03:49.783Z,23.60
2023-04-09T17:06:18.816Z,26.90
2023-04-09T17:08:48.122Z,21.80
2023-04-09T17:11:17.132Z,20.30
2023-04-09T17:13:51.947Z,21.00
2023-04-09T17:16:24.939Z,21.40
2023-04-09T17:18:53.523Z,21.30
2023-04-09T17:21:27.454Z,20.60
2023-04-09T17:24:04.213Z,18.50
2023-04-09T17:26:34.797Z,16.00
2023-04-09T17:29:03.561Z,18.90
2023-04-09T17:31:32.104Z,20.90
2023-04-09T17:34:19.478Z,21.00
2023-04-09T17:36:56.516Z,20.70
2023-04-09T17:39:32.963Z,27.20
2023-04-09T17:42:03.547Z,20.20
2023-04-09T17:44:39.381Z,20.40
2023-04-09T17:47:12.370Z,20.50
2023-04-09T17:49:43.780Z,24.00
2023-04-09T17:52:14.885Z,20.70
2023-04-09T17:54:46.830Z,22.30
2023-04-09T17:57:15.686Z,21.70
2023-04-09T17:59:49.121Z,21.00
2023-04-09T18:02:19.967Z,21.50
2023-04-09T18:04:55.512Z,22.20
2023-04-09T18:07:24.540Z,21.50
2023-04-09T18:09:53.016Z,19.00
2023-04-09T18:12:21.679Z,20.50
2023-04-09T18:15:04.457Z,19.00
2023-04-09T18:17:41.452Z,18.60
2023-04-09T18:20:15.690Z,18.80
2023-04-09T18:22:44.354Z,22.20
2023-04-09T18:25:21.658Z,20.60
2023-04-09T18:27:50.639Z,24.50
2023-04-09T18:30:26.387Z,27.90
2023-04-09T18:32:59.854Z,22.10
2023-04-09T18:35:32.105Z,21.50
2023-04-09T18:38:08.465Z,22.90
2023-04-09T18:40:42.457Z,24.40
2023-04-09T18:43:15.278Z,25.00
2023-04-09T18:45:43.913Z,27.50
2023-04-09T18:48:13.360Z,21.20
2023-04-09T18:50:41.680Z,21.10
2023-04-09T18:53:09.844Z,21.10
2023-04-09T18:55:38.584Z,22.30
2023-04-09T18:58:15.844Z,25.10
2023-04-09T19:00:47.309Z,28.20
2023-04-09T19:03:17.143Z,25.00
2023-04-09T19:05:45.593Z,23.70
2023-04-09T19:08:13.945Z,22.40
2023-04-09T19:10:42.455Z,25.20
2023-04-09T19:13:11.015Z,19.30
2023-04-09T19:15:39.678Z,20.60
2023-04-09T19:18:07.882Z,23.20
2023-04-09T19:20:37.882Z,21.60
2023-04-09T19:23:06.923Z,19.90
2023-04-09T19:25:37.011Z,23.80
2023-04-09T19:28:07.337Z,19.30
2023-04-09T19:30:35.753Z,22.10
2023-04-09T19:33:10.418Z,26.30
2023-04-09T19:35:41.362Z,27.30
2023-04-09T19:38:09.846Z,22.00
2023-04-09T19:40:38.947Z,22.10
2023-04-09T19:43:10.377Z,18.30
2023-04-09T19:45:38.637Z,19.90
2023-04-09T19:48:07.412Z,22.20
2023-04-09T19:50:38.768Z,25.30
2023-04-09T19:53:07.037Z,19.80
2023-04-09T19:55:35.343Z,28.10
2023-04-09T19:58:03.796Z,25.70
2023-04-09T20:00:32.900Z,23.70
2023-04-09T20:03:03.075Z,21.70
2023-04-09T20:05:31.794Z,20.90
2023-04-09T20:08:02.589Z,24.10
2023-04-09T20:10:39.835Z,22.00
2023-04-09T20:15:37.042Z,25.50
2023-04-09T20:18:10.300Z,25.40
2023-04-09T20:20:40.811Z,21.80
2023-04-09T20:23:08.759Z,24.00
2023-04-09T20:25:38.749Z,23.10
2023-04-09T20:28:09.938Z,23.60
2023-04-09T20:30:38.071Z,23.30
2023-04-09T20:33:06.702Z,25.10
2023-04-09T20:35:36.356Z,26.60
2023-04-09T20:38:04.635Z,25.30
2023-04-09T20:40:32.665Z,24.50
2023-04-09T20:43:04.131Z,25.90
2023-04-09T20:45:37.810Z,24.70
2023-04-09T20:48:06.819Z,25.00
2023-04-09T20:50:35.500Z,26.90
2023-04-09T20:53:05.911Z,27.80
2023-04-09T20:55:34.085Z,30.50
2023-04-09T20:58:06.357Z,33.00
2023-04-09T21:00:36.001Z,30.20
2023-04-09T21:03:04.170Z,34.80
2023-04-09T21:05:38.998Z,28.60
2023-04-09T21:08:09.659Z,32.70
2023-04-09T21:10:38.099Z,26.00
2023-04-09T21:13:06.378Z,25.00
2023-04-09T21:15:35.887Z,24.40
2023-04-09T21:18:04.208Z,25.70
2023-04-09T21:20:43.600Z,26.30
2023-04-09T21:23:13.649Z,27.70
2023-04-09T21:25:42.516Z,26.50
2023-04-09T21:28:12.227Z,23.30
2023-04-09T21:30:40.495Z,25.30
2023-04-09T21:33:09.108Z,33.10
2023-04-09T21:35:41.452Z,25.60
2023-04-09T21:38:09.984Z,25.50
2023-04-09T21:40:38.079Z,24.10
2023-04-09T21:43:06.845Z,20.50
2023-04-09T21:45:34.890Z,19.50
2023-04-09T21:48:04.261Z,29.40
2023-04-09T21:50:32.964Z,21.90
2023-04-09T21:53:01.123Z,24.10
2023-04-09T21:55:31.739Z,24.20
2023-04-09T21:57:59.946Z,23.50
2023-04-09T22:00:29.442Z,24.30
2023-04-09T22:03:03.989Z,25.60
2023-04-09T22:05:34.447Z,23.80
2023-04-09T22:08:05.642Z,22.20
2023-04-09T22:10:34.132Z,25.50
2023-04-09T22:13:10.923Z,22.90
2023-04-09T22:15:41.993Z,21.80
2023-04-09T22:18:10.112Z,29.10
2023-04-09T22:20:45.284Z,24.10
2023-04-09T22:23:15.851Z,24.30
2023-04-09T22:25:44.156Z,21.90
2023-04-09T22:28:19.901Z,24.30
2023-04-09T22:30:48.657Z,23.40
2023-04-09T22:33:17.156Z,22.60
2023-04-09T22:35:45.957Z,24.70
2023-04-09T22:38:16.524Z,27.30
2023-04-09T22:40:46.521Z,25.50
2023-04-09T22:43:14.922Z,24.50
2023-04-09T22:45:51.354Z,20.50
2023-04-09T22:48:23.269Z,23.90
2023-04-09T22:50:51.396Z,24.00
2023-04-09T22:53:20.851Z,23.80
2023-04-09T22:55:53.647Z,21.30
2023-04-09T22:58:21.607Z,20.50
2023-04-09T23:00:50.577Z,19.80
2023-04-09T23:03:18.867Z,19.00
2023-04-09T23:05:47.035Z,21.10
2023-04-09T23:08:17.775Z,22.30
2023-04-09T23:10:51.814Z,22.40
2023-04-09T23:13:19.834Z,21.90
2023-04-09T23:15:50.994Z,24.70
2023-04-09T23:18:19.206Z,21.50
2023-04-09T23:20:47.532Z,25.60
2023-04-09T23:23:17.533Z,27.20
2023-04-09T23:25:45.738Z,28.30
2023-04-09T23:28:14.598Z,23.90
2023-04-09T23:30:42.723Z,27.50
2023-04-09T23:33:13.304Z,29.40
2023-04-09T23:35:41.688Z,32.90
2023-04-09T23:38:11.032Z,29.70
2023-04-09T23:40:40.219Z,32.80
2023-04-09T23:43:08.377Z,30.90
2023-04-09T23:45:37.706Z,35.40
2023-04-09T23:48:07.608Z,38.90
2023-04-09T23:50:39.796Z,35.90
2023-04-09T23:53:07.976Z,35.50
2023-04-09T23:55:41.249Z,33.00
2023-04-09T23:58:10.989Z,32.50
